createdAt,value
2023-04-26T00:01:28.446Z,-0.56
2023-04-26T00:03:56.343Z,-0.58
2023-04-26T00:06:22.985Z,-0.66
2023-04-26T00:08:49.484Z,-0.80
2023-04-26T00:11:16.055Z,-0.57
2023-04-26T00:13:42.711Z,-0.65
2023-04-26T00:16:09.142Z,-0.80
2023-04-26T00:18:35.702Z,-0.84
2023-04-26T00:21:02.689Z,-0.80
2023-04-26T00:23:29.116Z,-0.78
2023-04-26T00:25:56.921Z,-0.72
2023-04-26T00:28:23.392Z,-0.85
2023-04-26T00:30:51.119Z,-0.82
2023-04-26T00:33:17.622Z,-0.88
2023-04-26T00:35:44.210Z,-0.84
2023-04-26T00:38:10.872Z,-0.83
2023-04-26T00:40:37.459Z,-0.85
2023-04-26T00:43:04.332Z,-0.93
2023-04-26T00:45:31.129Z,-1.00
2023-04-26T00:47:58.943Z,-1.07
2023-04-26T00:50:25.530Z,-0.97
2023-04-26T00:52:51.924Z,-1.23
2023-04-26T00:55:18.465Z,-1.01
2023-04-26T00:57:45.774Z,-1.01
2023-04-26T01:00:12.753Z,-1.20
2023-04-26T01:02:39.344Z,-1.12
2023-04-26T01:05:06.650Z,-1.04
2023-04-26T01:07:33.419Z,-1.12
2023-04-26T01:09:59.952Z,-1.08
2023-04-26T01:12:26.637Z,-1.18
2023-04-26T01:14:53.068Z,-1.21
2023-04-26T01:17:20.247Z,-1.31
2023-04-26T01:19:50.333Z,-1.31
2023-04-26T01:22:16.652Z,-1.17
2023-04-26T01:24:43.759Z,-1.22
2023-04-26T01:27:10.432Z,-1.37
2023-04-26T01:29:36.857Z,-1.28
2023-04-26T01:32:03.628Z,-1.38
2023-04-26T01:34:30.062Z,-1.34
2023-04-26T01:36:56.695Z,-1.47
2023-04-26T01:39:24.206Z,-1.32
2023-04-26T01:41:50.669Z,-1.47
2023-04-26T01:44:17.306Z,-1.41
2023-04-26T01:46:44.838Z,-1.43
2023-04-26T01:49:11.384Z,-1.37
2023-04-26T01:51:37.846Z,-1.57
2023-04-26T01:54:04.282Z,-1.51
2023-04-26T01:56:30.682Z,-1.52
2023-04-26T01:58:57.343Z,-1.60
2023-04-26T02:01:25.590Z,-1.55
2023-04-26T02:03:52.343Z,-1.64
2023-04-26T02:06:18.776Z,-1.65
2023-04-26T02:08:45.506Z,-1.57
2023-04-26T02:11:11.937Z,-1.56
2023-04-26T02:13:39.752Z,-1.60
2023-04-26T02:16:07.472Z,-1.51
2023-04-26T02:18:34.377Z,-1.55
2023-04-26T02:21:00.790Z,-1.61
2023-04-26T02:23:27.240Z,-1.64
2023-04-26T02:25:53.778Z,-1.63
2023-04-26T02:28:21.026Z,-1.59
2023-04-26T02:30:47.532Z,-1.74
2023-04-26T02:33:13.965Z,-1.58
2023-04-26T02:35:40.665Z,-1.65
2023-04-26T02:38:07.155Z,-1.80
2023-04-26T02:40:33.609Z,-1.77
2023-04-26T02:43:00.004Z,-1.81
2023-04-26T02:45:26.688Z,-1.65
2023-04-26T02:47:53.257Z,-1.81
2023-04-26T02:50:19.785Z,-1.72
2023-04-26T02:52:46.185Z,-1.90
2023-04-26T02:55:12.602Z,-1.78
2023-04-26T02:57:38.981Z,-1.91
2023-04-26T03:00:07.794Z,-1.99
2023-04-26T03:02:34.322Z,-1.85
2023-04-26T03:05:00.925Z,-1.89
2023-04-26T03:07:27.410Z,-1.89
2023-04-26T03:09:53.906Z,-1.94
2023-04-26T03:12:20.305Z,-2.08
2023-04-26T03:14:46.708Z,-1.93
2023-04-26T03:17:13.122Z,-1.97
2023-04-26T03:19:39.906Z,-1.94
2023-04-26T03:22:06.408Z,-1.98
2023-04-26T03:24:32.868Z,-2.21
2023-04-26T03:27:00.012Z,-2.01
2023-04-26T03:29:26.953Z,-2.11
2023-04-26T03:31:53.412Z,-1.95
2023-04-26T03:34:19.875Z,-1.93
2023-04-26T03:36:46.381Z,-2.00
2023-04-26T03:39:12.788Z,-2.05
2023-04-26T03:41:40.388Z,-2.01
2023-04-26T03:44:07.206Z,-2.19
2023-04-26T03:46:33.901Z,-2.08
2023-04-26T03:49:00.531Z,-2.20
2023-04-26T03:51:28.176Z,-2.06
2023-04-26T03:53:54.903Z,-2.08
2023-04-26T03:56:21.529Z,-2.07
2023-04-26T03:58:47.931Z,-2.06
2023-04-26T04:01:14.447Z,-2.16
2023-04-26T04:03:41.584Z,-2.07
2023-04-26T04:06:08.544Z,-2.11
2023-04-26T04:08:35.203Z,-1.99
2023-04-26T04:11:01.919Z,-2.05
2023-04-26T04:13:28.610Z,-2.03
2023-04-26T04:15:55.077Z,-2.25
2023-04-26T04:18:21.576Z,-2.19
2023-04-26T04:20:48.104Z,-2.21
2023-04-26T04:23:14.535Z,-2.25
2023-04-26T04:25:41.116Z,-2.14
2023-04-26T04:28:08.453Z,-2.08
2023-04-26T04:30:35.542Z,-2.14
2023-04-26T04:33:05.132Z,-2.18
2023-04-26T04:35:33.637Z,-2.10
2023-04-26T04:38:00.529Z,-2.08
2023-04-26T04:40:27.326Z,-2.25
2023-04-26T04:42:54.780Z,-2.10
2023-04-26T04:45:21.540Z,-2.31
2023-04-26T04:47:48.380Z,-2.06
2023-04-26T04:50:14.880Z,-2.04
2023-04-26T04:52:42.443Z,-1.90
2023-04-26T04:55:09.001Z,-1.83
2023-04-26T04:57:35.869Z,-1.90
2023-04-26T05:00:09.816Z,-1.78
2023-04-26T05:02:37.087Z,-1.76
2023-04-26T05:05:04.931Z,-1.80
2023-04-26T05:07:32.306Z,-1.63
2023-04-26T05:09:58.809Z,-1.72
2023-04-26T05:12:25.209Z,-1.53
2023-04-26T05:14:51.623Z,-1.57
2023-04-26T05:17:18.057Z,-1.40
2023-04-26T05:19:44.454Z,-1.54
2023-04-26T05:22:11.054Z,-1.32
2023-04-26T05:24:37.458Z,-1.30
2023-04-26T05:27:04.479Z,-1.15
2023-04-26T05:29:31.099Z,-1.03
2023-04-26T05:31:57.636Z,-1.03
2023-04-26T05:34:24.803Z,-0.90
2023-04-26T05:36:51.527Z,-1.24
2023-04-26T05:39:19.128Z,-0.77
2023-04-26T05:41:45.662Z,-0.72
2023-04-26T05:44:13.383Z,-0.57
2023-04-26T05:46:39.809Z,-0.52
2023-04-26T05:49:06.460Z,-0.42
2023-04-26T05:51:34.590Z,-0.37
2023-04-26T05:54:01.019Z,-0.16
2023-04-26T05:56:27.823Z,-0.21
2023-04-26T05:58:54.344Z,0.19
2023-04-26T06:01:21.505Z,0.33
2023-04-26T06:03:48.150Z,0.60
2023-04-26T06:06:15.369Z,0.87
2023-04-26T06:08:43.042Z,1.05
2023-04-26T06:11:09.476Z,1.24
2023-04-26T06:13:35.884Z,1.49
2023-04-26T06:16:02.769Z,1.98
2023-04-26T06:18:29.418Z,2.41
2023-04-26T06:20:55.944Z,2.82
2023-04-26T06:23:22.388Z,3.34
2023-04-26T06:25:48.871Z,4.09
2023-04-26T06:28:15.515Z,4.70
2023-04-26T06:30:42.503Z,5.50
2023-04-26T06:33:09.026Z,6.29
2023-04-26T06:35:41.525Z,6.92
2023-04-26T06:38:08.004Z,7.69
2023-04-26T06:40:36.866Z,8.19
2023-04-26T06:43:03.341Z,8.81
2023-04-26T06:45:29.920Z,9.39
2023-04-26T06:47:57.492Z,10.11
2023-04-26T06:50:24.149Z,11.00
2023-04-26T06:52:51.526Z,11.72
2023-04-26T06:55:18.797Z,12.43
2023-04-26T06:57:45.320Z,13.14
2023-04-26T07:00:13.104Z,13.80
2023-04-26T07:02:39.833Z,14.32
2023-04-26T07:05:06.936Z,14.84
2023-04-26T07:07:33.431Z,15.16
2023-04-26T07:09:59.880Z,15.77
2023-04-26T07:12:26.349Z,16.21
2023-04-26T07:14:52.899Z,16.65
2023-04-26T07:17:19.764Z,16.78
2023-04-26T07:19:46.254Z,17.14
2023-04-26T07:22:12.700Z,17.48
2023-04-26T07:24:39.349Z,18.07
2023-04-26T07:27:05.887Z,18.65
2023-04-26T07:29:32.663Z,18.67
2023-04-26T07:31:59.486Z,19.46
2023-04-26T07:34:26.178Z,19.71
2023-04-26T07:36:52.768Z,20.26
2023-04-26T07:39:19.701Z,20.58
2023-04-26T07:41:46.192Z,20.65
2023-04-26T07:44:12.961Z,21.03
2023-04-26T07:46:39.457Z,21.43
2023-04-26T07:49:05.923Z,21.34
2023-04-26T07:51:32.334Z,21.42
2023-04-26T07:53:58.843Z,21.82
2023-04-26T07:56:25.382Z,21.73
2023-04-26T07:58:51.826Z,21.08
2023-04-26T08:01:18.668Z,20.87
2023-04-26T08:03:45.474Z,20.76
2023-04-26T08:06:12.362Z,21.01
2023-04-26T08:08:44.462Z,20.48
2023-04-26T08:11:11.269Z,19.91
2023-04-26T08:13:37.712Z,20.30
2023-04-26T08:16:04.326Z,20.94
2023-04-26T08:18:30.737Z,21.70
2023-04-26T08:20:57.400Z,22.42
2023-04-26T08:23:23.872Z,22.99
2023-04-26T08:25:50.516Z,23.62
2023-04-26T08:28:16.963Z,24.25
2023-04-26T08:30:43.567Z,24.41
2023-04-26T08:33:10.135Z,24.74
2023-04-26T08:35:36.658Z,25.01
2023-04-26T08:38:03.189Z,25.28
2023-04-26T08:40:29.748Z,25.43
2023-04-26T08:42:56.199Z,25.45
2023-04-26T08:45:22.639Z,25.67
2023-04-26T08:48:09.047Z,25.84
2023-04-26T08:50:36.240Z,26.14
2023-04-26T08:53:03.287Z,26.21
2023-04-26T08:55:29.693Z,26.09
2023-04-26T08:57:56.156Z,26.15
2023-04-26T09:00:23.109Z,26.45
2023-04-26T09:02:54.082Z,26.62
2023-04-26T09:05:24.540Z,26.54
2023-04-26T09:07:52.552Z,26.72
2023-04-26T09:10:20.973Z,26.87
2023-04-26T09:12:48.737Z,26.17
2023-04-26T09:15:15.301Z,24.61
2023-04-26T09:17:42.140Z,23.64
2023-04-26T09:20:25.776Z,21.93
2023-04-26T09:22:53.591Z,20.53
2023-04-26T09:25:30.302Z,19.68
2023-04-26T09:27:56.846Z,19.38
2023-04-26T09:30:23.328Z,19.08
2023-04-26T09:32:53.589Z,18.50
2023-04-26T09:35:27.350Z,17.81
2023-04-26T09:38:00.284Z,17.41
2023-04-26T09:40:29.249Z,17.51
2023-04-26T09:42:59.885Z,17.25
2023-04-26T09:45:27.058Z,16.84
2023-04-26T09:47:53.626Z,16.55
2023-04-26T09:50:30.216Z,16.25
2023-04-26T09:52:56.785Z,16.36
2023-04-26T09:55:34.844Z,16.21
2023-04-26T09:58:09.069Z,16.44
2023-04-26T10:00:35.727Z,16.28
2023-04-26T10:03:02.345Z,16.21
2023-04-26T10:05:30.031Z,15.98
2023-04-26T10:07:58.033Z,15.63
2023-04-26T10:10:24.680Z,15.18
2023-04-26T10:12:51.125Z,14.97
2023-04-26T10:15:17.551Z,14.78
2023-04-26T10:17:44.258Z,14.77
2023-04-26T10:20:12.819Z,14.88
2023-04-26T10:22:46.256Z,14.84
2023-04-26T10:25:12.694Z,14.74
2023-04-26T10:27:47.928Z,14.57
2023-04-26T10:30:15.425Z,14.45
2023-04-26T10:32:56.997Z,14.42
2023-04-26T10:35:24.554Z,14.35
2023-04-26T10:38:00.213Z,14.00
2023-04-26T10:40:27.473Z,13.87
2023-04-26T10:43:29.059Z,13.74
2023-04-26T10:45:56.891Z,13.60
2023-04-26T10:48:30.108Z,13.51
2023-04-26T10:51:02.409Z,13.38
2023-04-26T10:53:33.083Z,13.21
2023-04-26T10:55:59.500Z,13.17
2023-04-26T10:58:33.364Z,12.83
2023-04-26T11:01:13.227Z,12.79
2023-04-26T11:04:13.138Z,12.69
2023-04-26T11:06:55.614Z,12.68
2023-04-26T11:09:39.720Z,12.68
2023-04-26T11:12:07.435Z,12.84
2023-04-26T11:14:35.334Z,12.93
2023-04-26T11:17:11.373Z,12.93
2023-04-26T11:19:37.822Z,13.21
2023-04-26T11:22:06.980Z,13.26
2023-04-26T11:24:36.414Z,13.15
2023-04-26T11:27:08.379Z,13.21
2023-04-26T11:29:34.807Z,13.07
2023-04-26T11:32:02.070Z,13.03
2023-04-26T11:34:35.382Z,13.16
2023-04-26T11:37:11.619Z,13.05
2023-04-26T11:39:38.090Z,13.01
2023-04-26T11:42:08.340Z,12.92
2023-04-26T11:44:35.411Z,13.06
2023-04-26T11:47:04.002Z,13.02
2023-04-26T11:49:31.671Z,13.10
2023-04-26T11:51:58.085Z,13.14
2023-04-26T11:54:44.274Z,13.05
2023-04-26T11:57:18.073Z,13.11
2023-04-26T11:59:44.832Z,13.03
2023-04-26T12:02:11.352Z,12.97
2023-04-26T12:04:39.871Z,12.73
2023-04-26T12:07:07.227Z,12.99
2023-04-26T12:09:33.687Z,12.86
2023-04-26T12:12:06.230Z,12.80
2023-04-26T12:14:36.714Z,12.77
2023-04-26T12:17:04.007Z,12.38
2023-04-26T12:19:34.317Z,12.37
2023-04-26T12:22:00.938Z,12.25
2023-04-26T12:24:34.336Z,11.92
2023-04-26T12:27:02.834Z,11.79
2023-04-26T12:29:30.567Z,11.92
2023-04-26T12:31:57.848Z,12.05
2023-04-26T12:34:24.366Z,12.01
2023-04-26T12:36:50.894Z,12.12
2023-04-26T12:39:17.309Z,12.18
2023-04-26T12:41:44.183Z,12.37
2023-04-26T12:44:10.781Z,12.29
2023-04-26T12:46:37.496Z,12.28
2023-04-26T12:49:04.203Z,12.58
2023-04-26T12:51:31.874Z,12.62
2023-04-26T12:53:58.299Z,12.81
2023-04-26T12:56:25.276Z,12.75
2023-04-26T12:58:51.728Z,12.75
2023-04-26T13:01:18.161Z,12.55
2023-04-26T13:03:45.385Z,12.65
2023-04-26T13:06:12.035Z,12.57
2023-04-26T13:08:38.499Z,12.54
2023-04-26T13:11:05.020Z,12.20
2023-04-26T13:13:42.139Z,12.45
2023-04-26T13:16:09.932Z,12.30
2023-04-26T13:18:36.640Z,12.13
2023-04-26T13:21:03.124Z,12.23
2023-04-26T13:23:29.522Z,12.23
2023-04-26T13:25:55.938Z,12.16
2023-04-26T13:28:22.343Z,12.16
2023-04-26T13:30:48.744Z,12.04
2023-04-26T13:33:15.390Z,11.69
2023-04-26T13:35:41.853Z,11.64
2023-04-26T13:38:08.305Z,11.59
2023-04-26T13:40:34.771Z,11.47
2023-04-26T13:43:01.167Z,11.47
2023-04-26T13:45:27.569Z,11.51
2023-04-26T13:47:54.157Z,11.59
2023-04-26T13:50:20.633Z,12.04
2023-04-26T13:52:48.424Z,12.13
2023-04-26T13:55:14.909Z,12.22
2023-04-26T13:57:41.412Z,12.29
2023-04-26T14:00:08.628Z,12.37
2023-04-26T14:02:35.167Z,12.41
2023-04-26T14:05:01.734Z,12.49
2023-04-26T14:07:28.224Z,12.20
2023-04-26T14:09:54.627Z,11.90
2023-04-26T14:12:21.059Z,11.98
2023-04-26T14:14:47.872Z,12.06
2023-04-26T14:17:14.341Z,12.05
2023-04-26T14:19:41.998Z,11.97
2023-04-26T14:22:12.568Z,12.10
2023-04-26T14:24:39.113Z,11.96
2023-04-26T14:27:05.565Z,12.14
2023-04-26T14:29:31.962Z,12.18
2023-04-26T14:31:58.570Z,11.96
2023-04-26T14:34:26.176Z,12.04
2023-04-26T14:36:52.588Z,11.92
2023-04-26T14:39:19.025Z,11.93
2023-04-26T14:41:46.245Z,11.89
2023-04-26T14:44:12.660Z,11.72
2023-04-26T14:46:39.129Z,11.26
2023-04-26T14:49:05.944Z,11.16
2023-04-26T14:51:32.550Z,10.94
2023-04-26T14:53:59.566Z,10.93
2023-04-26T14:56:26.307Z,10.95
2023-04-26T14:58:52.727Z,10.99
2023-04-26T15:01:19.219Z,11.25
2023-04-26T15:03:46.280Z,11.19
2023-04-26T15:06:12.893Z,11.37
2023-04-26T15:08:39.434Z,11.19
2023-04-26T15:11:05.933Z,11.09
2023-04-26T15:13:32.422Z,11.14
2023-04-26T15:16:04.132Z,11.16
2023-04-26T15:18:31.921Z,11.17
2023-04-26T15:20:58.670Z,11.11
2023-04-26T15:23:25.485Z,11.12
2023-04-26T15:25:52.077Z,11.08
2023-04-26T15:28:18.511Z,11.07
2023-04-26T15:30:45.280Z,11.12
2023-04-26T15:33:12.813Z,11.02
2023-04-26T15:35:39.234Z,11.18
2023-04-26T15:38:05.659Z,10.93
2023-04-26T15:40:32.069Z,11.18
2023-04-26T15:42:58.523Z,11.16
2023-04-26T15:45:24.914Z,11.07
2023-04-26T15:47:51.707Z,10.88
2023-04-26T15:50:18.164Z,10.77
2023-04-26T15:52:44.627Z,10.77
2023-04-26T15:55:11.103Z,10.86
2023-04-26T15:57:37.687Z,10.98
2023-04-26T16:00:08.122Z,10.87
2023-04-26T16:02:34.805Z,11.00
2023-04-26T16:05:01.821Z,11.02
2023-04-26T16:07:28.818Z,11.02
2023-04-26T16:09:55.231Z,10.96
2023-04-26T16:12:22.554Z,10.92
2023-04-26T16:14:49.291Z,10.85
2023-04-26T16:17:15.952Z,10.84
2023-04-26T16:19:42.381Z,10.77
2023-04-26T16:22:08.768Z,10.71
2023-04-26T16:24:36.012Z,10.65
2023-04-26T16:27:02.805Z,10.77
2023-04-26T16:29:29.231Z,10.60
2023-04-26T16:31:55.866Z,10.54
2023-04-26T16:34:22.287Z,10.53
2023-04-26T16:36:48.726Z,10.38
2023-04-26T16:39:16.151Z,10.42
2023-04-26T16:41:42.856Z,10.35
2023-04-26T16:44:09.296Z,10.32
2023-04-26T16:46:35.807Z,10.24
2023-04-26T16:49:03.147Z,10.23
2023-04-26T16:51:29.565Z,9.95
2023-04-26T16:53:56.150Z,9.95
2023-04-26T16:56:22.576Z,9.96
2023-04-26T16:58:49.199Z,9.96
2023-04-26T17:01:16.074Z,9.83
2023-04-26T17:03:43.089Z,9.92
2023-04-26T17:06:10.173Z,9.82
2023-04-26T17:08:36.809Z,9.61
2023-04-26T17:11:03.250Z,9.72
2023-04-26T17:13:32.503Z,9.62
2023-04-26T17:15:59.576Z,9.54
2023-04-26T17:18:26.606Z,9.45
2023-04-26T17:20:56.069Z,9.69
2023-04-26T17:23:22.499Z,9.58
2023-04-26T17:25:48.895Z,9.57
2023-04-26T17:28:15.348Z,9.39
2023-04-26T17:30:41.899Z,9.33
2023-04-26T17:33:08.437Z,9.43
2023-04-26T17:35:34.892Z,9.44
2023-04-26T17:38:01.318Z,9.35
2023-04-26T17:40:27.728Z,9.44
2023-04-26T17:42:54.204Z,9.41
2023-04-26T17:45:20.639Z,9.25
2023-04-26T17:47:47.196Z,9.25
2023-04-26T17:50:13.757Z,9.09
2023-04-26T17:52:40.195Z,9.12
2023-04-26T17:55:09.393Z,8.95
2023-04-26T17:57:36.583Z,8.89
2023-04-26T18:00:03.665Z,8.85
2023-04-26T18:02:30.407Z,8.66
2023-04-26T18:04:57.276Z,8.56
2023-04-26T18:07:24.224Z,8.46
2023-04-26T18:09:50.673Z,8.55
2023-04-26T18:12:17.501Z,8.56
2023-04-26T18:14:46.686Z,8.46
2023-04-26T18:17:13.699Z,8.44
2023-04-26T18:19:40.255Z,7.97
2023-04-26T18:22:07.120Z,8.06
2023-04-26T18:24:37.026Z,7.82
2023-04-26T18:27:03.285Z,8.11
2023-04-26T18:29:29.920Z,7.95
2023-04-26T18:31:56.497Z,7.99
2023-04-26T18:34:22.974Z,7.89
2023-04-26T18:36:49.869Z,7.76
2023-04-26T18:39:16.377Z,7.86
2023-04-26T18:41:42.971Z,7.71
2023-04-26T18:44:15.474Z,7.77
2023-04-26T18:46:43.135Z,7.73
2023-04-26T18:49:09.891Z,7.62
2023-04-26T18:51:36.317Z,7.55
2023-04-26T18:54:02.836Z,7.56
2023-04-26T18:56:29.307Z,7.52
2023-04-26T18:58:56.066Z,7.43
2023-04-26T19:01:22.955Z,7.33
2023-04-26T19:03:49.756Z,7.41
2023-04-26T19:06:16.491Z,7.25
2023-04-26T19:08:43.311Z,7.29
2023-04-26T19:11:11.334Z,6.95
2023-04-26T19:13:41.566Z,7.17
2023-04-26T19:16:08.726Z,7.16
2023-04-26T19:18:40.504Z,7.14
2023-04-26T19:21:07.950Z,7.03
2023-04-26T19:23:35.701Z,7.02
2023-04-26T19:26:03.935Z,7.06
2023-04-26T19:28:31.394Z,7.10
2023-04-26T19:30:58.154Z,6.92
2023-04-26T19:33:25.170Z,6.61
2023-04-26T19:35:52.083Z,6.58
2023-04-26T19:41:01.071Z,6.78
2023-04-26T19:43:27.559Z,6.85
2023-04-26T19:45:53.994Z,6.80
2023-04-26T19:48:20.510Z,6.79
2023-04-26T19:50:47.070Z,6.67
2023-04-26T19:53:14.268Z,6.57
2023-04-26T19:55:41.365Z,6.63
2023-04-26T19:58:07.945Z,6.44
2023-04-26T20:00:38.378Z,6.56
2023-04-26T20:03:05.379Z,6.54
2023-04-26T20:05:32.084Z,6.33
2023-04-26T20:07:58.528Z,6.15
2023-04-26T20:10:25.049Z,6.28
2023-04-26T20:12:51.819Z,6.28
2023-04-26T20:15:18.438Z,6.16
2023-04-26T20:17:44.973Z,6.13
2023-04-26T20:20:12.092Z,6.35
2023-04-26T20:22:41.840Z,6.27
2023-04-26T20:25:08.863Z,6.33
2023-04-26T20:27:35.442Z,6.14
2023-04-26T20:30:02.021Z,6.31
2023-04-26T20:32:28.653Z,6.16
2023-04-26T20:34:55.118Z,6.22
2023-04-26T20:37:22.172Z,6.27
2023-04-26T20:39:49.146Z,6.19
2023-04-26T20:42:16.231Z,6.15
2023-04-26T20:44:43.137Z,6.12
2023-04-26T20:47:09.571Z,6.20
2023-04-26T20:49:36.112Z,6.19
2023-04-26T20:52:02.579Z,5.99
2023-04-26T20:54:29.005Z,6.30
2023-04-26T20:56:55.470Z,5.92
2023-04-26T20:59:22.662Z,6.08
2023-04-26T21:01:50.451Z,5.85
2023-04-26T21:04:17.074Z,5.85
2023-04-26T21:06:43.652Z,5.69
2023-04-26T21:09:10.404Z,5.82
2023-04-26T21:11:37.032Z,5.66
2023-04-26T21:14:04.205Z,5.55
2023-04-26T21:16:30.990Z,5.60
2023-04-26T21:18:57.495Z,5.35
2023-04-26T21:21:26.991Z,5.37
2023-04-26T21:23:54.587Z,5.20
2023-04-26T21:26:21.268Z,4.85
2023-04-26T21:28:47.682Z,5.25
2023-04-26T21:31:16.007Z,5.27
2023-04-26T21:33:44.775Z,4.45
2023-04-26T21:36:11.511Z,4.34
2023-04-26T21:38:37.998Z,4.75
2023-04-26T21:44:06.554Z,4.16
2023-04-26T21:49:26.717Z,4.95
2023-04-26T21:51:58.111Z,4.16
2023-04-26T21:54:38.788Z,4.24
2023-04-26T21:57:28.951Z,4.82
2023-04-26T22:00:13.951Z,4.34
2023-04-26T22:08:40.745Z,4.42
2023-04-26T22:11:12.542Z,4.46
2023-04-26T22:13:40.140Z,3.98
2023-04-26T22:16:06.993Z,4.08
2023-04-26T22:18:33.600Z,3.87
2023-04-26T22:21:09.468Z,4.10
2023-04-26T22:26:59.032Z,3.68
2023-04-26T22:29:35.375Z,3.59
2023-04-26T22:35:05.510Z,4.22
2023-04-26T22:40:34.929Z,4.37
2023-04-26T22:43:02.740Z,3.94
2023-04-26T22:45:32.231Z,4.11
2023-04-26T22:47:59.945Z,4.32
2023-04-26T22:53:40.513Z,3.55
2023-04-26T22:56:07.975Z,3.54
2023-04-26T22:58:35.296Z,4.07
2023-04-26T23:01:01.878Z,4.01
2023-04-26T23:03:32.665Z,3.70
2023-04-26T23:06:18.585Z,4.42
2023-04-26T23:11:27.964Z,3.79
2023-04-26T23:14:14.366Z,3.69
2023-04-26T23:16:43.254Z,4.11
2023-04-26T23:19:10.126Z,3.75
2023-04-26T23:21:37.562Z,3.68
2023-04-26T23:24:06.031Z,4.35
2023-04-26T23:26:42.077Z,4.31
2023-04-26T23:29:08.901Z,3.87
2023-04-26T23:32:02.348Z,4.19
2023-04-26T23:34:42.782Z,4.12
2023-04-26T23:45:09.474Z,4.03
2023-04-26T23:50:23.514Z,4.40
2023-04-26T23:52:50.291Z,4.11
2023-04-26T23:55:49.734Z,4.35
2023-04-26T23:58:18.880Z,3.60
